sensor_id;sensor_type;location;lat;lon;timestamp;P1;durP1;ratioP1;P2;durP2;ratioP2
6928;SDS011;3504;52.616;13.238;2023-02-28T00:01:41;13.70;;;9.73;;
6928;SDS011;3504;52.616;13.238;2023-02-28T00:06:42;14.13;;;9.33;;
6928;SDS011;3504;52.616;13.238;2023-02-28T00:11:42;13.07;;;9.17;;
6928;SDS011;3504;52.616;13.238;2023-02-28T00:16:43;14.10;;;10.13;;
6928;SDS011;3504;52.616;13.238;2023-02-28T00:21:43;11.33;;;8.47;;
6928;SDS011;3504;52.616;13.238;2023-02-28T00:26:44;13.33;;;9.13;;
6928;SDS011;3504;52.616;13.238;2023-02-28T00:31:44;13.67;;;9.00;;
6928;SDS011;3504;52.616;13.238;2023-02-28T00:36:45;13.23;;;9.07;;
6928;SDS011;3504;52.616;13.238;2023-02-28T00:41:48;12.53;;;9.43;;
6928;SDS011;3504;52.616;13.238;2023-02-28T00:46:49;14.83;;;9.03;;
6928;SDS011;3504;52.616;13.238;2023-02-28T00:51:49;11.70;;;8.27;;
6928;SDS011;3504;52.616;13.238;2023-02-28T00:56:52;13.50;;;8.50;;
6928;SDS011;3504;52.616;13.238;2023-02-28T01:01:53;14.53;;;9.07;;
6928;SDS011;3504;52.616;13.238;2023-02-28T01:06:53;14.17;;;9.03;;
6928;SDS011;3504;52.616;13.238;2023-02-28T01:11:54;15.33;;;8.63;;
6928;SDS011;3504;52.616;13.238;2023-02-28T01:16:54;14.50;;;9.50;;
6928;SDS011;3504;52.616;13.238;2023-02-28T01:21:55;10.83;;;8.00;;
6928;SDS011;3504;52.616;13.238;2023-02-28T01:26:55;13.63;;;8.20;;
6928;SDS011;3504;52.616;13.238;2023-02-28T01:31:56;10.13;;;7.67;;
6928;SDS011;3504;52.616;13.238;2023-02-28T01:36:57;10.93;;;8.10;;
6928;SDS011;3504;52.616;13.238;2023-02-28T01:41:58;12.93;;;8.53;;
6928;SDS011;3504;52.616;13.238;2023-02-28T01:46:59;14.30;;;9.80;;
6928;SDS011;3504;52.616;13.238;2023-02-28T01:51:59;11.20;;;7.87;;
6928;SDS011;3504;52.616;13.238;2023-02-28T01:57:01;9.70;;;7.43;;
6928;SDS011;3504;52.616;13.238;2023-02-28T02:02:07;13.40;;;7.87;;
6928;SDS011;3504;52.616;13.238;2023-02-28T02:07:08;12.77;;;7.00;;
6928;SDS011;3504;52.616;13.238;2023-02-28T02:12:23;12.00;;;7.70;;
6928;SDS011;3504;52.616;13.238;2023-02-28T02:17:48;8.60;;;6.77;;
6928;SDS011;3504;52.616;13.238;2023-02-28T02:34:29;7.37;;;6.10;;
6928;SDS011;3504;52.616;13.238;2023-02-28T02:39:52;9.83;;;5.80;;
6928;SDS011;3504;52.616;13.238;2023-02-28T02:45:01;9.47;;;6.13;;
6928;SDS011;3504;52.616;13.238;2023-02-28T02:50:11;8.23;;;5.97;;
6928;SDS011;3504;52.616;13.238;2023-02-28T02:55:19;8.03;;;5.57;;
6928;SDS011;3504;52.616;13.238;2023-02-28T03:00:23;11.23;;;6.73;;
6928;SDS011;3504;52.616;13.238;2023-02-28T03:05:32;8.87;;;6.17;;
6928;SDS011;3504;52.616;13.238;2023-02-28T03:10:42;9.07;;;6.23;;
6928;SDS011;3504;52.616;13.238;2023-02-28T03:21:43;8.03;;;6.17;;
6928;SDS011;3504;52.616;13.238;2023-02-28T03:27:22;10.07;;;6.87;;
6928;SDS011;3504;52.616;13.238;2023-02-28T03:32:34;10.57;;;6.60;;
6928;SDS011;3504;52.616;13.238;2023-02-28T03:37:42;14.90;;;9.43;;
6928;SDS011;3504;52.616;13.238;2023-02-28T03:42:44;10.37;;;7.50;;
6928;SDS011;3504;52.616;13.238;2023-02-28T03:47:51;10.47;;;7.20;;
6928;SDS011;3504;52.616;13.238;2023-02-28T03:53:21;9.50;;;6.20;;
6928;SDS011;3504;52.616;13.238;2023-02-28T03:58:45;8.37;;;6.17;;
6928;SDS011;3504;52.616;13.238;2023-02-28T04:04:04;9.40;;;5.90;;
6928;SDS011;3504;52.616;13.238;2023-02-28T04:09:05;11.60;;;6.40;;
6928;SDS011;3504;52.616;13.238;2023-02-28T04:14:08;10.83;;;5.93;;
6928;SDS011;3504;52.616;13.238;2023-02-28T04:19:10;9.00;;;5.80;;
6928;SDS011;3504;52.616;13.238;2023-02-28T04:24:13;8.03;;;5.50;;
6928;SDS011;3504;52.616;13.238;2023-02-28T04:29:38;8.90;;;5.87;;
6928;SDS011;3504;52.616;13.238;2023-02-28T04:34:38;8.93;;;6.13;;
6928;SDS011;3504;52.616;13.238;2023-02-28T04:39:39;10.23;;;5.80;;
6928;SDS011;3504;52.616;13.238;2023-02-28T04:44:40;8.87;;;5.97;;
6928;SDS011;3504;52.616;13.238;2023-02-28T04:49:41;8.13;;;5.97;;
6928;SDS011;3504;52.616;13.238;2023-02-28T04:54:41;9.60;;;5.93;;
6928;SDS011;3504;52.616;13.238;2023-02-28T04:59:42;9.27;;;5.77;;
6928;SDS011;3504;52.616;13.238;2023-02-28T05:04:42;8.47;;;6.60;;
6928;SDS011;3504;52.616;13.238;2023-02-28T05:09:43;8.93;;;6.53;;
6928;SDS011;3504;52.616;13.238;2023-02-28T05:14:43;8.83;;;5.87;;
6928;SDS011;3504;52.616;13.238;2023-02-28T05:19:44;8.00;;;5.47;;
6928;SDS011;3504;52.616;13.238;2023-02-28T05:24:44;7.27;;;5.47;;
6928;SDS011;3504;52.616;13.238;2023-02-28T05:29:45;10.90;;;6.27;;
6928;SDS011;3504;52.616;13.238;2023-02-28T05:34:45;10.13;;;6.33;;
6928;SDS011;3504;52.616;13.238;2023-02-28T05:39:46;9.37;;;5.83;;
6928;SDS011;3504;52.616;13.238;2023-02-28T05:44:46;8.63;;;6.20;;
6928;SDS011;3504;52.616;13.238;2023-02-28T05:49:47;14.23;;;7.33;;
6928;SDS011;3504;52.616;13.238;2023-02-28T05:54:47;11.57;;;7.37;;
6928;SDS011;3504;52.616;13.238;2023-02-28T05:59:48;11.37;;;7.67;;
6928;SDS011;3504;52.616;13.238;2023-02-28T06:04:48;9.40;;;6.50;;
6928;SDS011;3504;52.616;13.238;2023-02-28T06:09:49;10.83;;;6.83;;
6928;SDS011;3504;52.616;13.238;2023-02-28T06:14:49;9.03;;;6.40;;
6928;SDS011;3504;52.616;13.238;2023-02-28T06:19:50;14.03;;;6.80;;
6928;SDS011;3504;52.616;13.238;2023-02-28T06:24:50;11.83;;;7.43;;
6928;SDS011;3504;52.616;13.238;2023-02-28T06:29:55;9.67;;;6.20;;
6928;SDS011;3504;52.616;13.238;2023-02-28T06:34:56;11.03;;;7.53;;
6928;SDS011;3504;52.616;13.238;2023-02-28T06:39:58;16.63;;;9.90;;
6928;SDS011;3504;52.616;13.238;2023-02-28T06:44:58;15.03;;;11.53;;
6928;SDS011;3504;52.616;13.238;2023-02-28T06:49:59;18.50;;;10.57;;
6928;SDS011;3504;52.616;13.238;2023-02-28T06:55:01;18.83;;;11.00;;
6928;SDS011;3504;52.616;13.238;2023-02-28T07:00:06;26.93;;;14.70;;
6928;SDS011;3504;52.616;13.238;2023-02-28T07:05:08;32.50;;;15.83;;
6928;SDS011;3504;52.616;13.238;2023-02-28T07:10:10;32.17;;;16.33;;
6928;SDS011;3504;52.616;13.238;2023-02-28T07:15:11;32.93;;;15.80;;
6928;SDS011;3504;52.616;13.238;2023-02-28T07:20:12;25.47;;;14.30;;
6928;SDS011;3504;52.616;13.238;2023-02-28T07:25:12;23.57;;;13.67;;
6928;SDS011;3504;52.616;13.238;2023-02-28T07:30:13;56.47;;;35.27;;
6928;SDS011;3504;52.616;13.238;2023-02-28T07:35:14;40.57;;;26.20;;
6928;SDS011;3504;52.616;13.238;2023-02-28T07:40:15;33.07;;;24.53;;
6928;SDS011;3504;52.616;13.238;2023-02-28T07:45:18;24.60;;;14.87;;
6928;SDS011;3504;52.616;13.238;2023-02-28T07:50:19;28.27;;;16.27;;
6928;SDS011;3504;52.616;13.238;2023-02-28T07:55:19;25.20;;;14.73;;
6928;SDS011;3504;52.616;13.238;2023-02-28T08:00:20;21.83;;;14.00;;
6928;SDS011;3504;52.616;13.238;2023-02-28T08:05:21;26.80;;;15.80;;
6928;SDS011;3504;52.616;13.238;2023-02-28T08:10:22;22.23;;;13.83;;
6928;SDS011;3504;52.616;13.238;2023-02-28T08:15:23;18.93;;;11.30;;
6928;SDS011;3504;52.616;13.238;2023-02-28T08:20:25;18.77;;;12.80;;
6928;SDS011;3504;52.616;13.238;2023-02-28T08:25:26;20.70;;;12.73;;
6928;SDS011;3504;52.616;13.238;2023-02-28T08:30:27;18.73;;;11.90;;
6928;SDS011;3504;52.616;13.238;2023-02-28T08:35:27;12.93;;;8.27;;
6928;SDS011;3504;52.616;13.238;2023-02-28T08:40:28;16.33;;;10.37;;
6928;SDS011;3504;52.616;13.238;2023-02-28T08:45:28;12.27;;;8.83;;
6928;SDS011;3504;52.616;13.238;2023-02-28T08:50:29;8.73;;;6.13;;
6928;SDS011;3504;52.616;13.238;2023-02-28T08:55:29;9.53;;;7.70;;
6928;SDS011;3504;52.616;13.238;2023-02-28T09:00:30;9.40;;;5.67;;
6928;SDS011;3504;52.616;13.238;2023-02-28T09:05:30;9.80;;;5.37;;
6928;SDS011;3504;52.616;13.238;2023-02-28T09:10:31;4.43;;;2.87;;
6928;SDS011;3504;52.616;13.238;2023-02-28T09:15:31;4.07;;;2.73;;
6928;SDS011;3504;52.616;13.238;2023-02-28T09:20:32;5.77;;;2.93;;
6928;SDS011;3504;52.616;13.238;2023-02-28T09:25:32;4.30;;;3.00;;
6928;SDS011;3504;52.616;13.238;2023-02-28T09:30:33;6.80;;;3.13;;
6928;SDS011;3504;52.616;13.238;2023-02-28T09:35:34;4.57;;;3.57;;
6928;SDS011;3504;52.616;13.238;2023-02-28T09:40:39;2.90;;;2.60;;
6928;SDS011;3504;52.616;13.238;2023-02-28T09:45:56;5.40;;;2.93;;
6928;SDS011;3504;52.616;13.238;2023-02-28T09:51:33;5.50;;;3.33;;
6928;SDS011;3504;52.616;13.238;2023-02-28T09:56:53;4.20;;;2.67;;
6928;SDS011;3504;52.616;13.238;2023-02-28T10:07:50;2.50;;;2.20;;
6928;SDS011;3504;52.616;13.238;2023-02-28T10:13:02;3.97;;;2.07;;
6928;SDS011;3504;52.616;13.238;2023-02-28T10:18:13;3.03;;;2.43;;
6928;SDS011;3504;52.616;13.238;2023-02-28T10:23:21;3.13;;;2.17;;
6928;SDS011;3504;52.616;13.238;2023-02-28T10:28:35;5.17;;;2.53;;
6928;SDS011;3504;52.616;13.238;2023-02-28T10:33:36;2.90;;;2.20;;
6928;SDS011;3504;52.616;13.238;2023-02-28T10:38:38;4.00;;;2.37;;
6928;SDS011;3504;52.616;13.238;2023-02-28T10:43:40;4.70;;;2.67;;
6928;SDS011;3504;52.616;13.238;2023-02-28T10:54:05;4.63;;;2.57;;
6928;SDS011;3504;52.616;13.238;2023-02-28T11:04:19;3.50;;;2.57;;
6928;SDS011;3504;52.616;13.238;2023-02-28T11:09:37;3.70;;;2.40;;
6928;SDS011;3504;52.616;13.238;2023-02-28T11:14:47;3.77;;;2.90;;
6928;SDS011;3504;52.616;13.238;2023-02-28T11:19:53;5.33;;;2.77;;
6928;SDS011;3504;52.616;13.238;2023-02-28T11:24:57;3.90;;;2.50;;
6928;SDS011;3504;52.616;13.238;2023-02-28T11:30:02;4.20;;;2.83;;
6928;SDS011;3504;52.616;13.238;2023-02-28T11:35:14;4.23;;;3.00;;
6928;SDS011;3504;52.616;13.238;2023-02-28T11:40:24;5.60;;;3.20;;
6928;SDS011;3504;52.616;13.238;2023-02-28T11:45:43;7.30;;;3.30;;
6928;SDS011;3504;52.616;13.238;2023-02-28T11:56:31;4.90;;;3.60;;
6928;SDS011;3504;52.616;13.238;2023-02-28T12:07:23;5.03;;;3.10;;
6928;SDS011;3504;52.616;13.238;2023-02-28T12:23:43;5.67;;;3.77;;
6928;SDS011;3504;52.616;13.238;2023-02-28T12:28:59;4.17;;;3.10;;
6928;SDS011;3504;52.616;13.238;2023-02-28T12:34:21;4.70;;;2.80;;
6928;SDS011;3504;52.616;13.238;2023-02-28T12:39:29;3.07;;;2.60;;
6928;SDS011;3504;52.616;13.238;2023-02-28T12:49:49;4.37;;;3.30;;
6928;SDS011;3504;52.616;13.238;2023-02-28T12:55:06;4.70;;;2.97;;
6928;SDS011;3504;52.616;13.238;2023-02-28T13:00:22;4.73;;;3.30;;
6928;SDS011;3504;52.616;13.238;2023-02-28T13:11:06;4.10;;;3.20;;
6928;SDS011;3504;52.616;13.238;2023-02-28T13:16:10;4.40;;;3.13;;
6928;SDS011;3504;52.616;13.238;2023-02-28T13:21:24;4.60;;;2.80;;
6928;SDS011;3504;52.616;13.238;2023-02-28T13:31:31;4.67;;;2.93;;
6928;SDS011;3504;52.616;13.238;2023-02-28T13:36:34;3.50;;;2.83;;
6928;SDS011;3504;52.616;13.238;2023-02-28T13:46:36;5.30;;;3.33;;
6928;SDS011;3504;52.616;13.238;2023-02-28T13:52:10;4.83;;;2.97;;
6928;SDS011;3504;52.616;13.238;2023-02-28T14:02:51;5.50;;;3.03;;
6928;SDS011;3504;52.616;13.238;2023-02-28T14:08:32;4.70;;;3.00;;
6928;SDS011;3504;52.616;13.238;2023-02-28T14:13:43;6.47;;;3.57;;
6928;SDS011;3504;52.616;13.238;2023-02-28T14:18:50;5.27;;;3.10;;
6928;SDS011;3504;52.616;13.238;2023-02-28T14:24:10;5.70;;;3.60;;
6928;SDS011;3504;52.616;13.238;2023-02-28T14:35:22;3.77;;;2.60;;
6928;SDS011;3504;52.616;13.238;2023-02-28T14:40:55;4.47;;;2.80;;
6928;SDS011;3504;52.616;13.238;2023-02-28T14:46:00;4.17;;;2.37;;
6928;SDS011;3504;52.616;13.238;2023-02-28T14:51:04;3.30;;;2.50;;
6928;SDS011;3504;52.616;13.238;2023-02-28T14:56:04;3.17;;;2.80;;
6928;SDS011;3504;52.616;13.238;2023-02-28T15:01:09;3.83;;;2.50;;
6928;SDS011;3504;52.616;13.238;2023-02-28T15:06:12;4.70;;;2.90;;
6928;SDS011;3504;52.616;13.238;2023-02-28T15:11:20;4.77;;;2.73;;
6928;SDS011;3504;52.616;13.238;2023-02-28T15:16:29;5.50;;;3.37;;
6928;SDS011;3504;52.616;13.238;2023-02-28T15:21:37;4.33;;;2.90;;
6928;SDS011;3504;52.616;13.238;2023-02-28T15:26:44;3.90;;;3.00;;
6928;SDS011;3504;52.616;13.238;2023-02-28T15:31:49;4.67;;;3.13;;
6928;SDS011;3504;52.616;13.238;2023-02-28T15:36:51;6.37;;;3.50;;
6928;SDS011;3504;52.616;13.238;2023-02-28T15:41:51;4.80;;;3.13;;
6928;SDS011;3504;52.616;13.238;2023-02-28T15:52:06;4.33;;;3.20;;
6928;SDS011;3504;52.616;13.238;2023-02-28T15:57:20;4.30;;;2.93;;
6928;SDS011;3504;52.616;13.238;2023-02-28T16:02:34;4.77;;;3.20;;
6928;SDS011;3504;52.616;13.238;2023-02-28T16:07:37;9.37;;;4.20;;
6928;SDS011;3504;52.616;13.238;2023-02-28T16:12:40;6.13;;;3.77;;
6928;SDS011;3504;52.616;13.238;2023-02-28T16:17:41;6.30;;;3.87;;
6928;SDS011;3504;52.616;13.238;2023-02-28T16:22:42;4.03;;;3.60;;
6928;SDS011;3504;52.616;13.238;2023-02-28T16:27:43;8.90;;;4.20;;
6928;SDS011;3504;52.616;13.238;2023-02-28T16:32:49;6.20;;;3.77;;
6928;SDS011;3504;52.616;13.238;2023-02-28T16:37:51;8.13;;;4.10;;
6928;SDS011;3504;52.616;13.238;2023-02-28T16:42:56;8.27;;;3.93;;
6928;SDS011;3504;52.616;13.238;2023-02-28T16:47:59;8.50;;;3.90;;
6928;SDS011;3504;52.616;13.238;2023-02-28T16:53:00;5.87;;;3.57;;
6928;SDS011;3504;52.616;13.238;2023-02-28T16:58:01;5.67;;;4.07;;
6928;SDS011;3504;52.616;13.238;2023-02-28T17:03:02;9.90;;;5.13;;
6928;SDS011;3504;52.616;13.238;2023-02-28T17:08:03;21.10;;;11.07;;
6928;SDS011;3504;52.616;13.238;2023-02-28T17:13:03;16.00;;;7.73;;
6928;SDS011;3504;52.616;13.238;2023-02-28T17:18:04;15.50;;;7.47;;
6928;SDS011;3504;52.616;13.238;2023-02-28T17:23:06;10.33;;;5.37;;
6928;SDS011;3504;52.616;13.238;2023-02-28T17:28:08;13.03;;;5.40;;
6928;SDS011;3504;52.616;13.238;2023-02-28T17:33:09;12.57;;;6.00;;
6928;SDS011;3504;52.616;13.238;2023-02-28T17:38:14;14.03;;;5.30;;
6928;SDS011;3504;52.616;13.238;2023-02-28T17:43:17;8.60;;;4.67;;
6928;SDS011;3504;52.616;13.238;2023-02-28T17:48:17;5.93;;;4.53;;
6928;SDS011;3504;52.616;13.238;2023-02-28T17:53:18;7.17;;;4.60;;
6928;SDS011;3504;52.616;13.238;2023-02-28T17:58:18;9.93;;;5.10;;
6928;SDS011;3504;52.616;13.238;2023-02-28T18:03:19;9.07;;;5.60;;
6928;SDS011;3504;52.616;13.238;2023-02-28T18:08:20;11.00;;;5.93;;
6928;SDS011;3504;52.616;13.238;2023-02-28T18:13:21;12.10;;;7.20;;
6928;SDS011;3504;52.616;13.238;2023-02-28T18:18:21;12.27;;;8.17;;
6928;SDS011;3504;52.616;13.238;2023-02-28T18:23:22;14.57;;;8.63;;
6928;SDS011;3504;52.616;13.238;2023-02-28T18:28:22;21.07;;;13.33;;
6928;SDS011;3504;52.616;13.238;2023-02-28T18:33:23;17.73;;;11.83;;
6928;SDS011;3504;52.616;13.238;2023-02-28T18:38:24;13.77;;;8.40;;
6928;SDS011;3504;52.616;13.238;2023-02-28T18:43:25;11.97;;;7.33;;
6928;SDS011;3504;52.616;13.238;2023-02-28T18:48:29;13.67;;;6.83;;
6928;SDS011;3504;52.616;13.238;2023-02-28T18:53:30;13.03;;;8.60;;
6928;SDS011;3504;52.616;13.238;2023-02-28T18:58:31;24.37;;;13.93;;
6928;SDS011;3504;52.616;13.238;2023-02-28T19:03:35;26.73;;;15.47;;
6928;SDS011;3504;52.616;13.238;2023-02-28T19:08:35;25.77;;;13.77;;
6928;SDS011;3504;52.616;13.238;2023-02-28T19:13:36;23.87;;;12.47;;
6928;SDS011;3504;52.616;13.238;2023-02-28T19:18:36;23.13;;;12.67;;
6928;SDS011;3504;52.616;13.238;2023-02-28T19:23:38;23.93;;;12.27;;
6928;SDS011;3504;52.616;13.238;2023-02-28T19:28:40;22.27;;;12.73;;
6928;SDS011;3504;52.616;13.238;2023-02-28T19:33:41;19.53;;;12.83;;
6928;SDS011;3504;52.616;13.238;2023-02-28T19:38:42;20.67;;;11.63;;
6928;SDS011;3504;52.616;13.238;2023-02-28T19:43:43;22.50;;;12.10;;
6928;SDS011;3504;52.616;13.238;2023-02-28T19:48:44;17.10;;;11.27;;
6928;SDS011;3504;52.616;13.238;2023-02-28T19:53:45;17.93;;;11.80;;
6928;SDS011;3504;52.616;13.238;2023-02-28T19:58:45;19.30;;;11.83;;
6928;SDS011;3504;52.616;13.238;2023-02-28T20:03:47;17.97;;;11.70;;
6928;SDS011;3504;52.616;13.238;2023-02-28T20:08:49;16.87;;;11.53;;
6928;SDS011;3504;52.616;13.238;2023-02-28T20:13:53;17.33;;;11.37;;
6928;SDS011;3504;52.616;13.238;2023-02-28T20:18:53;18.57;;;11.30;;
6928;SDS011;3504;52.616;13.238;2023-02-28T20:23:54;18.70;;;10.67;;
6928;SDS011;3504;52.616;13.238;2023-02-28T20:28:55;18.33;;;11.63;;
6928;SDS011;3504;52.616;13.238;2023-02-28T20:33:55;19.73;;;11.40;;
6928;SDS011;3504;52.616;13.238;2023-02-28T20:38:56;18.40;;;12.40;;
6928;SDS011;3504;52.616;13.238;2023-02-28T20:43:57;23.77;;;13.47;;
6928;SDS011;3504;52.616;13.238;2023-02-28T20:48:58;21.30;;;13.20;;
6928;SDS011;3504;52.616;13.238;2023-02-28T20:53:59;20.03;;;13.00;;
6928;SDS011;3504;52.616;13.238;2023-02-28T20:58:59;20.60;;;13.30;;
6928;SDS011;3504;52.616;13.238;2023-02-28T21:04:00;28.33;;;16.37;;
6928;SDS011;3504;52.616;13.238;2023-02-28T21:09:07;23.50;;;14.30;;
6928;SDS011;3504;52.616;13.238;2023-02-28T21:14:11;22.63;;;14.93;;
6928;SDS011;3504;52.616;13.238;2023-02-28T21:19:14;24.83;;;15.57;;
6928;SDS011;3504;52.616;13.238;2023-02-28T21:24:15;24.00;;;14.97;;
6928;SDS011;3504;52.616;13.238;2023-02-28T21:29:18;21.73;;;14.90;;
6928;SDS011;3504;52.616;13.238;2023-02-28T21:34:18;20.73;;;14.27;;
6928;SDS011;3504;52.616;13.238;2023-02-28T21:39:20;24.23;;;14.43;;
6928;SDS011;3504;52.616;13.238;2023-02-28T21:44:24;21.20;;;13.30;;
6928;SDS011;3504;52.616;13.238;2023-02-28T21:49:27;19.50;;;13.03;;
6928;SDS011;3504;52.616;13.238;2023-02-28T21:54:28;19.97;;;12.83;;
6928;SDS011;3504;52.616;13.238;2023-02-28T21:59:28;19.37;;;12.63;;
6928;SDS011;3504;52.616;13.238;2023-02-28T22:04:29;22.83;;;14.17;;
6928;SDS011;3504;52.616;13.238;2023-02-28T22:09:29;23.43;;;13.97;;
6928;SDS011;3504;52.616;13.238;2023-02-28T22:14:30;19.77;;;12.53;;
6928;SDS011;3504;52.616;13.238;2023-02-28T22:19:31;21.53;;;13.03;;
6928;SDS011;3504;52.616;13.238;2023-02-28T22:24:31;21.00;;;12.77;;
6928;SDS011;3504;52.616;13.238;2023-02-28T22:29:32;22.40;;;14.07;;
6928;SDS011;3504;52.616;13.238;2023-02-28T22:34:32;21.50;;;13.73;;
6928;SDS011;3504;52.616;13.238;2023-02-28T22:39:33;22.30;;;14.97;;
6928;SDS011;3504;52.616;13.238;2023-02-28T22:44:33;23.37;;;13.93;;
6928;SDS011;3504;52.616;13.238;2023-02-28T22:49:34;22.37;;;13.70;;
6928;SDS011;3504;52.616;13.238;2023-02-28T22:54:34;20.87;;;13.17;;
6928;SDS011;3504;52.616;13.238;2023-02-28T22:59:35;18.73;;;12.93;;
6928;SDS011;3504;52.616;13.238;2023-02-28T23:04:35;22.83;;;14.50;;
6928;SDS011;3504;52.616;13.238;2023-02-28T23:09:36;29.17;;;17.23;;
6928;SDS011;3504;52.616;13.238;2023-02-28T23:14:36;26.63;;;16.10;;
6928;SDS011;3504;52.616;13.238;2023-02-28T23:19:37;28.60;;;17.73;;
6928;SDS011;3504;52.616;13.238;2023-02-28T23:24:38;21.97;;;15.77;;
6928;SDS011;3504;52.616;13.238;2023-02-28T23:29:38;24.90;;;15.33;;
6928;SDS011;3504;52.616;13.238;2023-02-28T23:34:39;31.87;;;20.57;;
6928;SDS011;3504;52.616;13.238;2023-02-28T23:39:39;31.37;;;20.27;;
6928;SDS011;3504;52.616;13.238;2023-02-28T23:44:40;27.93;;;19.83;;
6928;SDS011;3504;52.616;13.238;2023-02-28T23:49:41;30.20;;;19.23;;
6928;SDS011;3504;52.616;13.238;2023-02-28T23:54:41;29.77;;;19.00;;
6928;SDS011;3504;52.616;13.238;2023-02-28T23:59:42;26.80;;;18.23;;
